sensor_id;sensor_type;location;lat;lon;timestamp;pressure;altitude;pressure_sealevel;temperature;humidity
39141;BME280;24875;48.436;10.298;2023-04-16T07:49:24;96204.78;;;9.64;100.00
39141;BME280;24875;48.436;10.298;2023-04-16T07:51:50;96202.19;;;9.56;100.00
39141;BME280;24875;48.436;10.298;2023-04-16T07:54:17;96201.38;;;9.56;100.00
39141;BME280;24875;48.436;10.298;2023-04-16T07:56:44;96204.84;;;9.56;100.00
39141;BME280;24875;48.436;10.298;2023-04-16T07:59:10;96207.91;;;9.60;100.00
39141;BME280;24875;48.436;10.298;2023-04-16T08:01:37;96216.81;;;9.59;100.00
39141;BME280;24875;48.436;10.298;2023-04-16T08:04:04;96222.13;;;9.43;100.00
39141;BME280;24875;48.436;10.298;2023-04-16T08:06:31;96216.84;;;9.51;100.00
39141;BME280;24875;48.436;10.298;2023-04-16T08:08:58;96221.50;;;9.41;100.00
39141;BME280;24875;48.436;10.298;2023-04-16T08:11:25;96225.22;;;9.08;100.00
39141;BME280;24875;48.436;10.298;2023-04-16T08:13:51;96223.88;;;9.12;100.00
39141;BME280;24875;48.436;10.298;2023-04-16T08:16:18;96229.13;;;9.28;100.00
39141;BME280;24875;48.436;10.298;2023-04-16T08:18:44;96230.06;;;9.35;100.00
39141;BME280;24875;48.436;10.298;2023-04-16T08:21:11;96239.78;;;9.26;100.00
39141;BME280;24875;48.436;10.298;2023-04-16T08:23:38;96227.03;;;9.54;100.00
39141;BME280;24875;48.436;10.298;2023-04-16T08:26:05;96242.81;;;9.54;100.00
39141;BME280;24875;48.436;10.298;2023-04-16T08:28:31;96231.31;;;9.55;100.00
39141;BME280;24875;48.436;10.298;2023-04-16T08:30:58;96244.16;;;9.42;100.00
39141;BME280;24875;48.436;10.298;2023-04-16T08:33:25;96250.88;;;9.44;100.00
39141;BME280;24875;48.436;10.298;2023-04-16T08:35:51;96248.97;;;9.38;100.00
39141;BME280;24875;48.436;10.298;2023-04-16T08:38:18;96254.50;;;9.51;100.00
39141;BME280;24875;48.436;10.298;2023-04-16T08:40:46;96251.41;;;9.40;100.00
39141;BME280;24875;48.436;10.298;2023-04-16T08:43:14;96252.34;;;9.55;100.00
39141;BME280;24875;48.436;10.298;2023-04-16T08:45:42;96249.69;;;9.63;100.00
39141;BME280;24875;48.436;10.298;2023-04-16T08:48:10;96253.97;;;9.56;100.00
39141;BME280;24875;48.436;10.298;2023-04-16T08:50:37;96252.81;;;9.66;100.00
39141;BME280;24875;48.436;10.298;2023-04-16T08:53:06;96251.66;;;9.61;100.00
39141;BME280;24875;48.436;10.298;2023-04-16T08:55:37;96258.91;;;9.59;100.00
39141;BME280;24875;48.436;10.298;2023-04-16T08:58:08;96259.00;;;9.73;100.00
39141;BME280;24875;48.436;10.298;2023-04-16T09:00:36;96263.16;;;9.68;100.00
39141;BME280;24875;48.436;10.298;2023-04-16T09:03:03;96260.97;;;9.79;100.00
39141;BME280;24875;48.436;10.298;2023-04-16T09:05:29;96264.34;;;9.87;100.00
39141;BME280;24875;48.436;10.298;2023-04-16T09:07:57;96265.78;;;9.68;100.00
39141;BME280;24875;48.436;10.298;2023-04-16T09:10:24;96264.84;;;9.91;100.00
39141;BME280;24875;48.436;10.298;2023-04-16T09:12:54;96277.34;;;9.89;100.00
39141;BME280;24875;48.436;10.298;2023-04-16T09:15:22;96278.59;;;9.70;100.00
39141;BME280;24875;48.436;10.298;2023-04-16T09:17:49;96274.63;;;9.74;100.00
39141;BME280;24875;48.436;10.298;2023-04-16T09:20:16;96281.94;;;9.95;100.00
39141;BME280;24875;48.436;10.298;2023-04-16T09:22:43;96271.81;;;9.76;100.00
39141;BME280;24875;48.436;10.298;2023-04-16T09:25:10;96272.16;;;10.11;100.00
39141;BME280;24875;48.436;10.298;2023-04-16T09:27:36;96272.41;;;10.02;100.00
39141;BME280;24875;48.436;10.298;2023-04-16T09:30:17;96280.38;;;10.16;100.00
39141;BME280;24875;48.436;10.298;2023-04-16T09:32:47;96273.09;;;10.18;100.00
39141;BME280;24875;48.436;10.298;2023-04-16T09:35:14;96275.34;;;10.29;100.00
39141;BME280;24875;48.436;10.298;2023-04-16T09:37:40;96276.31;;;10.06;100.00
39141;BME280;24875;48.436;10.298;2023-04-16T09:40:08;96279.72;;;10.14;100.00
39141;BME280;24875;48.436;10.298;2023-04-16T09:42:35;96278.03;;;10.21;100.00
39141;BME280;24875;48.436;10.298;2023-04-16T09:45:03;96280.75;;;10.05;100.00
39141;BME280;24875;48.436;10.298;2023-04-16T09:47:38;96286.25;;;10.26;100.00
39141;BME280;24875;48.436;10.298;2023-04-16T09:50:07;96290.41;;;10.13;100.00
39141;BME280;24875;48.436;10.298;2023-04-16T09:52:35;96285.38;;;10.03;100.00
39141;BME280;24875;48.436;10.298;2023-04-16T09:55:02;96297.41;;;9.98;100.00
39141;BME280;24875;48.436;10.298;2023-04-16T09:57:29;96302.97;;;10.11;100.00
39141;BME280;24875;48.436;10.298;2023-04-16T10:00:00;96295.38;;;10.16;100.00
39141;BME280;24875;48.436;10.298;2023-04-16T10:02:28;96311.06;;;9.93;100.00
39141;BME280;24875;48.436;10.298;2023-04-16T10:04:55;96302.69;;;10.28;100.00
39141;BME280;24875;48.436;10.298;2023-04-16T10:07:27;96312.66;;;10.10;100.00
39141;BME280;24875;48.436;10.298;2023-04-16T10:09:54;96304.16;;;9.92;100.00
39141;BME280;24875;48.436;10.298;2023-04-16T10:12:21;96318.66;;;9.88;100.00
39141;BME280;24875;48.436;10.298;2023-04-16T10:14:47;96311.91;;;9.86;100.00
39141;BME280;24875;48.436;10.298;2023-04-16T10:17:15;96308.91;;;10.05;100.00
39141;BME280;24875;48.436;10.298;2023-04-16T10:19:42;96318.03;;;10.17;100.00
39141;BME280;24875;48.436;10.298;2023-04-16T10:22:09;96309.81;;;10.20;100.00
39141;BME280;24875;48.436;10.298;2023-04-16T10:24:37;96318.88;;;10.17;100.00
39141;BME280;24875;48.436;10.298;2023-04-16T10:27:04;96317.66;;;9.97;100.00
39141;BME280;24875;48.436;10.298;2023-04-16T10:29:30;96325.13;;;10.16;100.00
39141;BME280;24875;48.436;10.298;2023-04-16T10:31:58;96318.47;;;10.28;100.00
39141;BME280;24875;48.436;10.298;2023-04-16T10:34:26;96314.16;;;10.05;100.00
39141;BME280;24875;48.436;10.298;2023-04-16T10:36:53;96317.13;;;10.32;100.00
39141;BME280;24875;48.436;10.298;2023-04-16T10:39:22;96321.53;;;10.09;100.00
39141;BME280;24875;48.436;10.298;2023-04-16T10:41:50;96327.34;;;10.05;100.00
39141;BME280;24875;48.436;10.298;2023-04-16T10:44:31;96325.75;;;10.18;100.00
39141;BME280;24875;48.436;10.298;2023-04-16T10:46:58;96322.25;;;10.03;100.00
39141;BME280;24875;48.436;10.298;2023-04-16T10:49:25;96325.91;;;9.86;100.00
39141;BME280;24875;48.436;10.298;2023-04-16T10:51:53;96321.16;;;10.20;100.00
39141;BME280;24875;48.436;10.298;2023-04-16T10:54:23;96326.72;;;10.25;100.00
39141;BME280;24875;48.436;10.298;2023-04-16T10:56:52;96327.03;;;10.30;100.00
39141;BME280;24875;48.436;10.298;2023-04-16T10:59:22;96328.28;;;10.42;100.00
39141;BME280;24875;48.436;10.298;2023-04-16T11:01:50;96335.97;;;10.51;100.00
39141;BME280;24875;48.436;10.298;2023-04-16T11:04:35;96327.47;;;10.64;100.00
39141;BME280;24875;48.436;10.298;2023-04-16T11:07:13;96332.56;;;10.65;100.00
39141;BME280;24875;48.436;10.298;2023-04-16T11:09:51;96327.72;;;10.77;100.00
39141;BME280;24875;48.436;10.298;2023-04-16T11:12:21;96335.63;;;10.77;100.00
39141;BME280;24875;48.436;10.298;2023-04-16T11:14:49;96338.97;;;10.71;100.00
39141;BME280;24875;48.436;10.298;2023-04-16T11:17:16;96334.28;;;10.58;100.00
39141;BME280;24875;48.436;10.298;2023-04-16T11:19:43;96339.06;;;10.55;100.00
39141;BME280;24875;48.436;10.298;2023-04-16T11:22:11;96337.38;;;10.62;100.00
39141;BME280;24875;48.436;10.298;2023-04-16T11:24:41;96338.06;;;10.56;100.00
39141;BME280;24875;48.436;10.298;2023-04-16T11:27:07;96339.41;;;10.52;100.00
39141;BME280;24875;48.436;10.298;2023-04-16T11:29:36;96337.28;;;10.47;100.00
39141;BME280;24875;48.436;10.298;2023-04-16T11:32:03;96341.16;;;10.37;100.00
39141;BME280;24875;48.436;10.298;2023-04-16T11:34:30;96349.97;;;10.52;100.00
39141;BME280;24875;48.436;10.298;2023-04-16T11:36:57;96346.78;;;10.34;100.00
39141;BME280;24875;48.436;10.298;2023-04-16T11:39:24;96347.38;;;10.44;100.00
39141;BME280;24875;48.436;10.298;2023-04-16T11:41:50;96345.25;;;10.39;100.00
39141;BME280;24875;48.436;10.298;2023-04-16T11:44:18;96350.31;;;10.49;100.00
39141;BME280;24875;48.436;10.298;2023-04-16T11:46:47;96347.06;;;10.69;100.00
39141;BME280;24875;48.436;10.298;2023-04-16T11:49:13;96348.44;;;10.57;100.00
39141;BME280;24875;48.436;10.298;2023-04-16T11:51:42;96344.50;;;10.53;100.00
39141;BME280;24875;48.436;10.298;2023-04-16T11:54:17;96356.91;;;10.45;100.00
39141;BME280;24875;48.436;10.298;2023-04-16T11:56:45;96352.34;;;10.39;100.00
39141;BME280;24875;48.436;10.298;2023-04-16T11:59:14;96353.41;;;10.52;100.00
39141;BME280;24875;48.436;10.298;2023-04-16T12:01:42;96350.63;;;10.46;100.00
39141;BME280;24875;48.436;10.298;2023-04-16T12:04:12;96358.84;;;10.21;100.00
39141;BME280;24875;48.436;10.298;2023-04-16T12:06:39;96363.66;;;10.09;100.00
39141;BME280;24875;48.436;10.298;2023-04-16T12:09:24;96359.59;;;10.37;100.00
39141;BME280;24875;48.436;10.298;2023-04-16T12:11:51;96363.06;;;9.99;100.00
39141;BME280;24875;48.436;10.298;2023-04-16T12:14:18;96355.75;;;10.17;100.00
39141;BME280;24875;48.436;10.298;2023-04-16T12:16:45;96361.75;;;10.33;100.00
39141;BME280;24875;48.436;10.298;2023-04-16T12:19:13;96370.91;;;10.45;100.00
39141;BME280;24875;48.436;10.298;2023-04-16T12:21:41;96362.03;;;10.46;100.00
39141;BME280;24875;48.436;10.298;2023-04-16T12:24:09;96362.09;;;10.61;100.00
39141;BME280;24875;48.436;10.298;2023-04-16T12:26:41;96371.22;;;10.73;100.00
39141;BME280;24875;48.436;10.298;2023-04-16T12:29:16;96367.59;;;10.74;100.00
39141;BME280;24875;48.436;10.298;2023-04-16T12:31:44;96361.28;;;10.60;100.00
39141;BME280;24875;48.436;10.298;2023-04-16T12:34:10;96367.22;;;10.54;100.00
39141;BME280;24875;48.436;10.298;2023-04-16T12:36:38;96364.25;;;10.57;100.00
39141;BME280;24875;48.436;10.298;2023-04-16T12:39:04;96368.44;;;10.44;100.00
39141;BME280;24875;48.436;10.298;2023-04-16T12:41:31;96369.81;;;10.32;100.00
39141;BME280;24875;48.436;10.298;2023-04-16T12:44:03;96369.25;;;10.44;100.00
39141;BME280;24875;48.436;10.298;2023-04-16T12:46:30;96377.13;;;10.14;100.00
39141;BME280;24875;48.436;10.298;2023-04-16T12:48:57;96368.25;;;10.15;100.00
39141;BME280;24875;48.436;10.298;2023-04-16T12:51:23;96372.13;;;10.35;100.00
39141;BME280;24875;48.436;10.298;2023-04-16T12:53:53;96365.03;;;10.35;100.00
39141;BME280;24875;48.436;10.298;2023-04-16T12:56:19;96368.06;;;10.17;100.00
39141;BME280;24875;48.436;10.298;2023-04-16T12:58:46;96374.94;;;10.26;100.00
39141;BME280;24875;48.436;10.298;2023-04-16T13:01:17;96372.13;;;10.35;100.00
39141;BME280;24875;48.436;10.298;2023-04-16T13:03:44;96374.38;;;10.08;100.00
39141;BME280;24875;48.436;10.298;2023-04-16T13:06:11;96374.91;;;9.95;100.00
39141;BME280;24875;48.436;10.298;2023-04-16T13:08:37;96373.03;;;10.12;100.00
39141;BME280;24875;48.436;10.298;2023-04-16T13:11:05;96380.63;;;10.07;100.00
39141;BME280;24875;48.436;10.298;2023-04-16T13:13:32;96373.47;;;10.23;100.00
39141;BME280;24875;48.436;10.298;2023-04-16T13:15:58;96368.88;;;10.25;100.00
39141;BME280;24875;48.436;10.298;2023-04-16T13:18:25;96371.59;;;10.39;100.00
39141;BME280;24875;48.436;10.298;2023-04-16T13:20:52;96363.97;;;10.22;100.00
39141;BME280;24875;48.436;10.298;2023-04-16T13:23:18;96373.88;;;10.12;100.00
39141;BME280;24875;48.436;10.298;2023-04-16T13:25:45;96379.81;;;10.06;100.00
39141;BME280;24875;48.436;10.298;2023-04-16T13:28:12;96379.00;;;10.06;100.00
39141;BME280;24875;48.436;10.298;2023-04-16T13:30:39;96378.28;;;10.12;100.00
39141;BME280;24875;48.436;10.298;2023-04-16T13:33:07;96374.69;;;10.13;100.00
39141;BME280;24875;48.436;10.298;2023-04-16T13:35:33;96376.53;;;9.96;100.00
39141;BME280;24875;48.436;10.298;2023-04-16T13:38:00;96376.75;;;9.79;100.00
39141;BME280;24875;48.436;10.298;2023-04-16T13:40:27;96385.13;;;9.90;100.00
39141;BME280;24875;48.436;10.298;2023-04-16T13:42:53;96386.75;;;9.83;100.00
39141;BME280;24875;48.436;10.298;2023-04-16T13:45:21;96389.06;;;9.78;100.00
39141;BME280;24875;48.436;10.298;2023-04-16T13:47:48;96393.06;;;9.67;100.00
39141;BME280;24875;48.436;10.298;2023-04-16T13:50:15;96392.25;;;9.66;100.00
39141;BME280;24875;48.436;10.298;2023-04-16T13:52:41;96397.50;;;9.66;100.00
39141;BME280;24875;48.436;10.298;2023-04-16T13:55:08;96390.38;;;9.82;100.00
39141;BME280;24875;48.436;10.298;2023-04-16T13:57:37;96396.13;;;9.86;100.00
39141;BME280;24875;48.436;10.298;2023-04-16T14:00:06;96398.81;;;9.70;100.00
39141;BME280;24875;48.436;10.298;2023-04-16T14:02:35;96393.69;;;9.68;100.00
39141;BME280;24875;48.436;10.298;2023-04-16T14:05:01;96392.41;;;9.57;100.00
39141;BME280;24875;48.436;10.298;2023-04-16T14:07:28;96391.44;;;9.58;100.00
39141;BME280;24875;48.436;10.298;2023-04-16T14:09:54;96392.56;;;9.63;100.00
39141;BME280;24875;48.436;10.298;2023-04-16T14:12:21;96393.38;;;9.56;100.00
39141;BME280;24875;48.436;10.298;2023-04-16T14:14:47;96389.81;;;9.49;100.00
39141;BME280;24875;48.436;10.298;2023-04-16T14:17:14;96390.44;;;9.59;100.00
39141;BME280;24875;48.436;10.298;2023-04-16T14:19:41;96390.75;;;9.56;100.00
39141;BME280;24875;48.436;10.298;2023-04-16T14:22:08;96390.66;;;9.33;100.00
39141;BME280;24875;48.436;10.298;2023-04-16T14:24:35;96392.44;;;9.33;100.00
39141;BME280;24875;48.436;10.298;2023-04-16T14:27:01;96397.22;;;9.37;100.00
39141;BME280;24875;48.436;10.298;2023-04-16T14:29:28;96389.81;;;9.33;100.00
39141;BME280;24875;48.436;10.298;2023-04-16T14:31:55;96390.47;;;9.35;100.00
39141;BME280;24875;48.436;10.298;2023-04-16T14:34:22;96390.47;;;9.43;100.00
39141;BME280;24875;48.436;10.298;2023-04-16T14:36:50;96386.66;;;9.53;100.00
39141;BME280;24875;48.436;10.298;2023-04-16T14:39:17;96393.59;;;9.46;100.00
39141;BME280;24875;48.436;10.298;2023-04-16T14:41:43;96397.34;;;9.52;100.00
39141;BME280;24875;48.436;10.298;2023-04-16T14:44:10;96392.94;;;9.52;100.00
39141;BME280;24875;48.436;10.298;2023-04-16T14:46:36;96387.47;;;9.62;100.00
39141;BME280;24875;48.436;10.298;2023-04-16T14:49:05;96395.03;;;9.57;100.00
39141;BME280;24875;48.436;10.298;2023-04-16T14:51:32;96395.03;;;9.57;100.00
39141;BME280;24875;48.436;10.298;2023-04-16T14:54:00;96394.38;;;9.63;100.00
39141;BME280;24875;48.436;10.298;2023-04-16T14:56:27;96388.13;;;9.56;100.00
39141;BME280;24875;48.436;10.298;2023-04-16T14:58:53;96394.72;;;9.68;100.00
39141;BME280;24875;48.436;10.298;2023-04-16T15:01:20;96404.41;;;9.75;100.00
39141;BME280;24875;48.436;10.298;2023-04-16T15:03:46;96402.75;;;9.58;100.00
39141;BME280;24875;48.436;10.298;2023-04-16T15:06:13;96401.28;;;9.64;100.00
39141;BME280;24875;48.436;10.298;2023-04-16T15:08:40;96405.22;;;9.75;100.00
39141;BME280;24875;48.436;10.298;2023-04-16T15:11:08;96397.31;;;9.75;100.00
39141;BME280;24875;48.436;10.298;2023-04-16T15:13:34;96405.38;;;9.74;100.00
39141;BME280;24875;48.436;10.298;2023-04-16T15:16:01;96407.50;;;9.86;100.00
39141;BME280;24875;48.436;10.298;2023-04-16T15:18:28;96402.91;;;9.72;100.00
39141;BME280;24875;48.436;10.298;2023-04-16T15:20:55;96410.97;;;9.71;100.00
39141;BME280;24875;48.436;10.298;2023-04-16T15:23:22;96404.25;;;9.61;100.00
39141;BME280;24875;48.436;10.298;2023-04-16T15:25:48;96405.75;;;9.47;100.00
39141;BME280;24875;48.436;10.298;2023-04-16T15:28:16;96406.84;;;9.68;100.00
39141;BME280;24875;48.436;10.298;2023-04-16T15:30:43;96403.59;;;9.67;100.00
39141;BME280;24875;48.436;10.298;2023-04-16T15:33:10;96408.88;;;9.59;100.00
39141;BME280;24875;48.436;10.298;2023-04-16T15:35:37;96410.97;;;9.63;100.00
39141;BME280;24875;48.436;10.298;2023-04-16T15:38:05;96409.84;;;9.58;100.00
39141;BME280;24875;48.436;10.298;2023-04-16T15:40:31;96413.97;;;9.52;100.00
39141;BME280;24875;48.436;10.298;2023-04-16T15:42:58;96411.31;;;9.44;100.00
39141;BME280;24875;48.436;10.298;2023-04-16T15:45:26;96414.63;;;9.46;100.00
39141;BME280;24875;48.436;10.298;2023-04-16T15:47:53;96420.22;;;9.43;100.00
39141;BME280;24875;48.436;10.298;2023-04-16T15:50:20;96414.28;;;9.41;100.00
39141;BME280;24875;48.436;10.298;2023-04-16T15:52:46;96417.44;;;9.37;100.00
39141;BME280;24875;48.436;10.298;2023-04-16T15:55:13;96421.38;;;9.49;100.00
39141;BME280;24875;48.436;10.298;2023-04-16T15:57:40;96420.06;;;9.45;100.00
39141;BME280;24875;48.436;10.298;2023-04-16T16:00:07;96418.41;;;9.36;100.00
39141;BME280;24875;48.436;10.298;2023-04-16T16:02:39;96424.31;;;9.54;100.00
39141;BME280;24875;48.436;10.298;2023-04-16T16:05:08;96426.28;;;9.68;100.00
39141;BME280;24875;48.436;10.298;2023-04-16T16:07:35;96421.38;;;9.49;100.00
39141;BME280;24875;48.436;10.298;2023-04-16T16:10:01;96425.31;;;9.53;100.00
39141;BME280;24875;48.436;10.298;2023-04-16T16:12:28;96417.41;;;9.53;100.00
39141;BME280;24875;48.436;10.298;2023-04-16T16:14:55;96422.66;;;9.61;100.00
39141;BME280;24875;48.436;10.298;2023-04-16T16:17:22;96423.50;;;9.61;100.00
39141;BME280;24875;48.436;10.298;2023-04-16T16:19:50;96427.91;;;9.68;100.00
39141;BME280;24875;48.436;10.298;2023-04-16T16:22:17;96433.16;;;9.68;100.00
39141;BME280;24875;48.436;10.298;2023-04-16T16:24:47;96431.84;;;9.65;100.00
39141;BME280;24875;48.436;10.298;2023-04-16T16:27:15;96429.25;;;9.49;100.00
39141;BME280;24875;48.436;10.298;2023-04-16T16:29:41;96433.19;;;9.53;100.00
39141;BME280;24875;48.436;10.298;2023-04-16T16:32:08;96440.59;;;9.57;100.00
39141;BME280;24875;48.436;10.298;2023-04-16T16:34:35;96436.16;;;9.58;100.00
39141;BME280;24875;48.436;10.298;2023-04-16T16:37:03;96436.16;;;9.42;100.00
39141;BME280;24875;48.436;10.298;2023-04-16T16:39:30;96439.94;;;9.39;100.00
39141;BME280;24875;48.436;10.298;2023-04-16T16:41:57;96441.09;;;9.45;100.00
39141;BME280;24875;48.436;10.298;2023-04-16T16:44:23;96435.16;;;9.43;100.00
39141;BME280;24875;48.436;10.298;2023-04-16T16:46:50;96441.09;;;9.45;100.00
39141;BME280;24875;48.436;10.298;2023-04-16T16:49:16;96438.44;;;9.29;100.00
39141;BME280;24875;48.436;10.298;2023-04-16T16:51:44;96443.22;;;9.41;100.00
39141;BME280;24875;48.436;10.298;2023-04-16T16:54:12;96439.09;;;9.47;100.00
39141;BME280;24875;48.436;10.298;2023-04-16T16:56:38;96444.38;;;9.39;100.00
39141;BME280;24875;48.436;10.298;2023-04-16T16:59:04;96446.38;;;9.37;100.00
39141;BME280;24875;48.436;10.298;2023-04-16T17:01:31;96446.66;;;9.42;100.00
39141;BME280;24875;48.436;10.298;2023-04-16T17:03:58;96442.06;;;9.44;100.00
39141;BME280;24875;48.436;10.298;2023-04-16T17:06:24;96449.97;;;9.52;100.00
39141;BME280;24875;48.436;10.298;2023-04-16T17:08:51;96447.00;;;9.39;100.00
39141;BME280;24875;48.436;10.298;2023-04-16T17:11:19;96456.56;;;9.32;100.00
39141;BME280;24875;48.436;10.298;2023-04-16T17:13:45;96452.28;;;9.31;100.00
39141;BME280;24875;48.436;10.298;2023-04-16T17:16:12;96455.88;;;9.30;100.00
39141;BME280;24875;48.436;10.298;2023-04-16T17:18:41;96449.97;;;9.36;100.00
39141;BME280;24875;48.436;10.298;2023-04-16T17:21:07;96447.00;;;9.39;100.00
39141;BME280;24875;48.436;10.298;2023-04-16T17:23:34;96449.31;;;9.34;100.00
39141;BME280;24875;48.436;10.298;2023-04-16T17:26:00;96450.97;;;9.35;100.00
39141;BME280;24875;48.436;10.298;2023-04-16T17:28:28;96453.41;;;9.44;100.00
39141;BME280;24875;48.436;10.298;2023-04-16T17:30:54;96455.22;;;9.44;100.00
39141;BME280;24875;48.436;10.298;2023-04-16T17:33:21;96453.91;;;9.40;100.00
39141;BME280;24875;48.436;10.298;2023-04-16T17:35:47;96453.41;;;9.36;100.00
39141;BME280;24875;48.436;10.298;2023-04-16T17:38:14;96453.56;;;9.43;100.00
39141;BME280;24875;48.436;10.298;2023-04-16T17:40:40;96455.88;;;9.54;100.00
39141;BME280;24875;48.436;10.298;2023-04-16T17:43:07;96455.72;;;9.47;100.00
39141;BME280;24875;48.436;10.298;2023-04-16T17:45:34;96457.53;;;9.47;100.00
39141;BME280;24875;48.436;10.298;2023-04-16T17:48:01;96455.25;;;9.36;100.00
39141;BME280;24875;48.436;10.298;2023-04-16T17:50:27;96461.81;;;9.32;100.00
39141;BME280;24875;48.436;10.298;2023-04-16T17:52:54;96461.81;;;9.32;100.00
39141;BME280;24875;48.436;10.298;2023-04-16T17:55:22;96465.59;;;9.37;100.00
39141;BME280;24875;48.436;10.298;2023-04-16T17:57:48;96459.50;;;9.29;100.00
39141;BME280;24875;48.436;10.298;2023-04-16T18:00:16;96464.44;;;9.40;100.00
39141;BME280;24875;48.436;10.298;2023-04-16T18:02:44;96472.50;;;9.46;100.00
39141;BME280;24875;48.436;10.298;2023-04-16T18:05:10;96472.66;;;9.45;100.00
39141;BME280;24875;48.436;10.298;2023-04-16T18:07:37;96484.00;;;9.45;100.00
39141;BME280;24875;48.436;10.298;2023-04-16T18:10:04;96478.72;;;9.45;100.00
39141;BME280;24875;48.436;10.298;2023-04-16T18:12:30;96482.19;;;9.38;100.00
39141;BME280;24875;48.436;10.298;2023-04-16T18:14:57;96485.97;;;9.43;100.00
39141;BME280;24875;48.436;10.298;2023-04-16T18:17:24;96483.19;;;9.37;100.00
39141;BME280;24875;48.436;10.298;2023-04-16T18:19:52;96485.66;;;9.46;100.00
39141;BME280;24875;48.436;10.298;2023-04-16T18:22:18;96483.19;;;9.45;100.00
39141;BME280;24875;48.436;10.298;2023-04-16T18:24:45;96490.75;;;9.40;100.00
39141;BME280;24875;48.436;10.298;2023-04-16T18:27:11;96487.09;;;9.33;100.00
39141;BME280;24875;48.436;10.298;2023-04-16T18:29:38;96493.03;;;9.67;100.00
39141;BME280;24875;48.436;10.298;2023-04-16T18:32:05;96493.63;;;10.24;100.00
39141;BME280;24875;48.436;10.298;2023-04-16T18:34:31;96502.06;;;10.12;100.00
39141;BME280;24875;48.436;10.298;2023-04-16T18:36:59;96501.25;;;10.03;100.00
39141;BME280;24875;48.436;10.298;2023-04-16T18:39:26;96505.38;;;9.74;100.00
39141;BME280;24875;48.436;10.298;2023-04-16T18:41:52;96508.47;;;9.69;100.00
39141;BME280;24875;48.436;10.298;2023-04-16T18:44:19;96504.72;;;9.64;100.00
39141;BME280;24875;48.436;10.298;2023-04-16T18:46:45;96507.81;;;9.60;100.00
39141;BME280;24875;48.436;10.298;2023-04-16T18:49:12;96508.66;;;9.52;100.00
39141;BME280;24875;48.436;10.298;2023-04-16T18:51:39;96507.81;;;9.60;100.00
39141;BME280;24875;48.436;10.298;2023-04-16T18:54:07;96509.63;;;9.67;100.00
39141;BME280;24875;48.436;10.298;2023-04-16T18:56:34;96517.88;;;9.56;100.00
39141;BME280;24875;48.436;10.298;2023-04-16T18:59:00;96514.41;;;9.56;100.00
39141;BME280;24875;48.436;10.298;2023-04-16T19:01:27;96512.09;;;9.53;100.00
39141;BME280;24875;48.436;10.298;2023-04-16T19:03:53;96526.75;;;9.55;100.00
39141;BME280;24875;48.436;10.298;2023-04-16T19:06:20;96520.69;;;9.55;100.00
39141;BME280;24875;48.436;10.298;2023-04-16T19:08:47;96521.97;;;9.51;100.00
39141;BME280;24875;48.436;10.298;2023-04-16T19:11:14;96520.50;;;9.48;100.00
39141;BME280;24875;48.436;10.298;2023-04-16T19:13:41;96517.22;;;9.38;100.00
39141;BME280;24875;48.436;10.298;2023-04-16T19:16:07;96528.69;;;9.45;100.00
39141;BME280;24875;48.436;10.298;2023-04-16T19:18:36;96530.53;;;9.45;100.00
39141;BME280;24875;48.436;10.298;2023-04-16T19:21:03;96525.56;;;9.42;100.00
39141;BME280;24875;48.436;10.298;2023-04-16T19:23:29;96525.78;;;9.48;100.00
39141;BME280;24875;48.436;10.298;2023-04-16T19:25:56;96528.88;;;9.36;100.00
39141;BME280;24875;48.436;10.298;2023-04-16T19:28:24;96533.31;;;9.43;100.00
39141;BME280;24875;48.436;10.298;2023-04-16T19:30:51;96540.03;;;9.38;100.00
39141;BME280;24875;48.436;10.298;2023-04-16T19:33:18;96543.16;;;9.33;100.00
39141;BME280;24875;48.436;10.298;2023-04-16T19:35:45;96537.09;;;9.41;100.00
39141;BME280;24875;48.436;10.298;2023-04-16T19:38:12;96540.03;;;9.38;100.00
39141;BME280;24875;48.436;10.298;2023-04-16T19:40:39;96540.38;;;9.35;100.00
39141;BME280;24875;48.436;10.298;2023-04-16T19:43:05;96540.03;;;9.38;100.00
39141;BME280;24875;48.436;10.298;2023-04-16T19:45:33;96545.63;;;9.43;100.00
39141;BME280;24875;48.436;10.298;2023-04-16T19:47:59;96544.97;;;9.33;100.00
39141;BME280;24875;48.436;10.298;2023-04-16T19:50:26;96548.25;;;9.27;100.00
39141;BME280;24875;48.436;10.298;2023-04-16T19:52:52;96545.28;;;9.30;100.00
39141;BME280;24875;48.436;10.298;2023-04-16T19:55:19;96548.72;;;9.30;100.00
39141;BME280;24875;48.436;10.298;2023-04-16T19:57:46;96554.50;;;9.34;100.00
39141;BME280;24875;48.436;10.298;2023-04-16T20:00:14;96547.91;;;9.30;100.00
39141;BME280;24875;48.436;10.298;2023-04-16T20:02:42;96550.88;;;9.35;100.00
39141;BME280;24875;48.436;10.298;2023-04-16T20:05:09;96552.31;;;9.13;100.00
39141;BME280;24875;48.436;10.298;2023-04-16T20:07:35;96551.50;;;9.21;100.00
39141;BME280;24875;48.436;10.298;2023-04-16T20:10:02;96552.97;;;9.08;100.00
39141;BME280;24875;48.436;10.298;2023-04-16T20:12:28;96556.59;;;9.22;100.00
39141;BME280;24875;48.436;10.298;2023-04-16T20:14:55;96559.75;;;9.26;100.00
39141;BME280;24875;48.436;10.298;2023-04-16T20:17:21;96555.28;;;9.26;100.00
39141;BME280;24875;48.436;10.298;2023-04-16T20:19:49;96559.13;;;9.32;100.00
39141;BME280;24875;48.436;10.298;2023-04-16T20:22:16;96556.63;;;9.30;100.00
39141;BME280;24875;48.436;10.298;2023-04-16T20:24:43;96558.44;;;9.38;100.00
39141;BME280;24875;48.436;10.298;2023-04-16T20:27:11;96555.50;;;9.41;100.00
39141;BME280;24875;48.436;10.298;2023-04-16T20:29:38;96551.22;;;9.32;100.00
39141;BME280;24875;48.436;10.298;2023-04-16T20:32:05;96553.50;;;9.27;100.00
39141;BME280;24875;48.436;10.298;2023-04-16T20:34:31;96541.69;;;9.23;100.00
39141;BME280;24875;48.436;10.298;2023-04-16T20:36:59;96543.16;;;9.33;100.00